Pagina principale
METAR-TAF:

METAR-TAF

Aeroporti :

Santa Maria di Leuca

Castrignano del Capo, Italia

latitudine: 39-49N, longitudine: 018-21E, altezza: 104 m

Osservazione

Il bollettino è stato emesso 36 minuti fa, alle 18:55 UTC
Vento 12 kt da nord/nord-est
Temperature 21°C
Umidità 40%
Pressione 1013 hPa
Visibilità 10 km o più
nessuna nube inferiore a 1500 m e nessun cumulonembo

METAR: LIBY 231855Z 02012KT CAVOK 21/07 Q1013 RMK SKC QUK / QUL / VIS MAR 15 KM VIS MIN 9999

Ora: 21:31 (19:31 UTC)


TAF: mancante

Osservazioni e previsioni meteorologiche di più di 4000 aeroporti (messaggi METAR e TAF).

Le stazioni disponibili sono rappresentate dai dischi gialli e rossi sulla carta.

Puntare il mouse per vedere il nome della stazione.

Clicca sopra per visualizzare le osservazioni e previsioni meteorologiche.

Per cambiare la mappa : fare clic sui pulsanti verdi con una croce nera per ingrandire, il pulsante verde con un trattino per diminuire, o sulla freccia verde per le mappe adiacenti.


METAR-TAF: